< < Back
Terminal Aerodrome Forecast


Current Version              Previous Versions:   1  2  3  4  5  6  7  8  9  

Terminal Aerodrome Forecast

054
FTUS42 KGSP 281139
TAFAVL
TAF
KAVL 281139Z 2812/2912 34006KT P6SM VCSH SCT015 BKN030
      TEMPO 2812/2815 5SM -SHRA BR BKN012
     FM281500 35010KT P6SM VCSH BKN025
     FM281700 35009KT P6SM BKN060
     FM281900 34009KT P6SM SCT150
     FM282000 34008KT P6SM SCT250
     FM290900 00000KT 4SM BR FEW005=



Latest METAR

872
SAUS70 KWBC 290700 RRM
MTRAVL
METAR KAVL 290654Z AUTO 00000KT 10SM CLR 18/16 A3004 RMK AO2 SLP144
T01780161


USA.gov is the U.S. government's official web portal to all federal, state and local government web resources and services.